createdAt,value
2023-02-14T00:02:13.393Z,103316.41
2023-02-14T00:04:44.296Z,103320.47
2023-02-14T00:07:13.460Z,103325.78
2023-02-14T00:09:41.826Z,103324.03
2023-02-14T00:12:10.231Z,103315.22
2023-02-14T00:14:55.892Z,103320.69
2023-02-14T00:17:25.607Z,103284.91
2023-02-14T00:19:53.973Z,103314.97
2023-02-14T00:22:22.423Z,103307.22
2023-02-14T00:24:50.771Z,103308.00
2023-02-14T00:27:19.076Z,103183.81
2023-02-14T00:29:47.584Z,103299.88
2023-02-14T00:32:16.019Z,103301.88
2023-02-14T00:34:45.682Z,103302.47
2023-02-14T00:37:14.091Z,103295.06
2023-02-14T00:39:42.541Z,103296.16
2023-02-14T00:42:10.815Z,103285.94
2023-02-14T00:44:39.190Z,103285.69
2023-02-14T00:47:07.853Z,103284.81
2023-02-14T00:49:36.237Z,103285.69
2023-02-14T00:52:06.276Z,103277.59
2023-02-14T00:54:34.628Z,103263.94
2023-02-14T00:57:02.940Z,103284.09
2023-02-14T00:59:31.264Z,103277.88
2023-02-14T01:01:59.501Z,103282.31
2023-02-14T01:04:27.881Z,103278.63
2023-02-14T01:06:56.261Z,103278.94
2023-02-14T01:09:26.072Z,103279.66
2023-02-14T01:11:55.052Z,103270.63
2023-02-14T01:14:23.494Z,103252.03
2023-02-14T01:16:51.936Z,103268.00
2023-02-14T01:19:20.356Z,103269.59
2023-02-14T01:21:48.758Z,103268.38
2023-02-14T01:24:17.050Z,103268.66
2023-02-14T01:26:46.750Z,103264.94
2023-02-14T01:29:15.034Z,103269.56
2023-02-14T01:31:44.934Z,103270.34
2023-02-14T01:34:13.459Z,103184.38
2023-02-14T01:36:42.134Z,103263.78
2023-02-14T01:39:14.594Z,103261.63
2023-02-14T01:41:48.476Z,103266.72
2023-02-14T01:45:01.082Z,103255.53
2023-02-14T01:47:33.209Z,103270.50
2023-02-14T01:50:07.413Z,103263.53
2023-02-14T01:52:39.352Z,103257.16
2023-02-14T01:55:17.056Z,103260.34
2023-02-14T01:57:52.291Z,103261.72
2023-02-14T02:00:39.641Z,103264.91
2023-02-14T02:03:09.495Z,103260.22
2023-02-14T02:05:42.575Z,103261.25
2023-02-14T02:08:11.171Z,103260.75
2023-02-14T02:10:39.523Z,103250.75
2023-02-14T02:13:16.183Z,103232.28
2023-02-14T02:15:58.395Z,103266.19
2023-02-14T02:18:45.410Z,103268.25
2023-02-14T02:22:17.175Z,103258.78
2023-02-14T02:24:56.917Z,103262.75
2023-02-14T02:27:48.306Z,103261.63
2023-02-14T02:30:55.619Z,103253.19
2023-02-14T02:34:05.637Z,103257.75
2023-02-14T02:36:52.982Z,103261.00
2023-02-14T02:39:39.365Z,103249.91
2023-02-14T02:42:22.475Z,103245.41
2023-02-14T02:45:07.987Z,103247.84
2023-02-14T02:47:43.869Z,103236.09
2023-02-14T02:50:42.285Z,103233.75
2023-02-14T02:53:23.796Z,103233.75
2023-02-14T02:56:16.468Z,103241.06
2023-02-14T02:58:49.480Z,103240.53
2023-02-14T03:01:23.502Z,103234.81
2023-02-14T03:04:16.241Z,103238.69
2023-02-14T03:06:46.359Z,103238.69
2023-02-14T03:09:53.842Z,103229.94
2023-02-14T03:13:17.958Z,103238.13
2023-02-14T03:16:08.004Z,103239.16
2023-02-14T03:19:16.344Z,103241.16
2023-02-14T03:21:54.539Z,103241.09
2023-02-14T03:24:31.711Z,103238.47
2023-02-14T03:27:08.061Z,103229.25
2023-02-14T03:29:50.700Z,103227.31
2023-02-14T03:32:30.892Z,103239.13
2023-02-14T03:35:08.758Z,103237.34
2023-02-14T03:37:42.786Z,103227.22
2023-02-14T03:40:18.233Z,103103.88
2023-02-14T03:42:53.595Z,103224.31
2023-02-14T03:45:29.874Z,103232.84
2023-02-14T03:48:03.416Z,103226.56
2023-02-14T03:50:33.813Z,103222.53
2023-02-14T03:53:04.340Z,103219.56
2023-02-14T03:55:39.167Z,103255.06
2023-02-14T03:58:12.262Z,103222.22
2023-02-14T04:00:43.426Z,103228.63
2023-02-14T04:03:14.864Z,103227.16
2023-02-14T04:05:46.723Z,103215.97
2023-02-14T04:08:23.045Z,103222.88
2023-02-14T04:10:54.006Z,103216.25
2023-02-14T04:13:22.434Z,103229.53
2023-02-14T04:15:50.739Z,103227.75
2023-02-14T04:18:36.700Z,103214.31
2023-02-14T04:21:05.605Z,103225.88
2023-02-14T04:23:33.869Z,103216.94
2023-02-14T04:26:04.860Z,103215.63
2023-02-14T04:28:33.884Z,103193.41
2023-02-14T04:31:04.158Z,103214.16
2023-02-14T04:33:33.225Z,103215.06
2023-02-14T04:36:02.036Z,103205.66
2023-02-14T04:38:30.474Z,103205.91
2023-02-14T04:40:59.058Z,103203.94
2023-02-14T04:43:28.999Z,103215.84
2023-02-14T04:45:57.327Z,103214.84
2023-02-14T04:48:25.592Z,103219.91
2023-02-14T04:50:55.559Z,103223.78
2023-02-14T04:53:24.051Z,103196.78
2023-02-14T04:55:52.681Z,103221.31
2023-02-14T04:58:21.025Z,103118.97
2023-02-14T05:00:50.865Z,103224.22
2023-02-14T05:03:19.148Z,103218.38
2023-02-14T05:05:47.959Z,103224.75
2023-02-14T05:08:16.235Z,103220.69
2023-02-14T05:10:44.788Z,103201.97
2023-02-14T05:13:13.105Z,103218.00
2023-02-14T05:15:41.445Z,103221.47
2023-02-14T05:18:11.063Z,103216.06
2023-02-14T05:20:39.501Z,103216.78
2023-02-14T05:23:13.544Z,103219.16
2023-02-14T05:25:41.997Z,103186.50
2023-02-14T05:28:10.775Z,103210.88
2023-02-14T05:30:39.698Z,103211.03
2023-02-14T05:33:09.825Z,103204.44
2023-02-14T05:35:38.231Z,103209.22
2023-02-14T05:38:06.780Z,103212.91
2023-02-14T05:40:35.063Z,103198.28
2023-02-14T05:43:03.322Z,103197.44
2023-02-14T05:45:31.726Z,103199.97
2023-02-14T05:48:00.021Z,103200.06
2023-02-14T05:50:30.187Z,103208.34
2023-02-14T05:52:59.031Z,103212.78
2023-02-14T05:55:27.384Z,103208.41
2023-02-14T05:57:55.975Z,103206.00
2023-02-14T06:00:25.472Z,103206.88
2023-02-14T06:02:53.893Z,103205.38
2023-02-14T06:05:22.527Z,103178.72
2023-02-14T06:07:52.463Z,103199.31
2023-02-14T06:10:23.650Z,103200.72
2023-02-14T06:12:54.429Z,103198.56
2023-02-14T06:15:23.790Z,103201.50
2023-02-14T06:17:56.607Z,103195.88
2023-02-14T06:20:26.301Z,103193.25
2023-02-14T06:22:56.104Z,103183.09
2023-02-14T06:25:25.829Z,103194.59
2023-02-14T06:27:58.107Z,103188.56
2023-02-14T06:30:27.390Z,103196.84
2023-02-14T06:32:56.076Z,103194.22
2023-02-14T06:35:24.564Z,103198.25
2023-02-14T06:37:52.833Z,103196.44
2023-02-14T06:40:22.708Z,103194.06
2023-02-14T06:42:51.067Z,103201.13
2023-02-14T06:45:19.521Z,103194.78
2023-02-14T06:47:47.927Z,103201.56
2023-02-14T06:50:16.277Z,103202.84
2023-02-14T06:52:44.584Z,103213.38
2023-02-14T06:55:13.857Z,103209.22
2023-02-14T06:57:43.568Z,103218.75
2023-02-14T07:00:14.922Z,103216.69
2023-02-14T07:02:43.734Z,103219.97
2023-02-14T07:05:12.053Z,103228.00
2023-02-14T07:07:40.408Z,103229.03
2023-02-14T07:10:09.800Z,103227.66
2023-02-14T07:12:39.503Z,103221.94
2023-02-14T07:15:11.792Z,103228.63
2023-02-14T07:17:40.516Z,103222.78
2023-02-14T07:20:12.719Z,103231.75
2023-02-14T07:22:41.455Z,103239.38
2023-02-14T07:25:10.350Z,103222.31
2023-02-14T07:27:38.715Z,103224.88
2023-02-14T07:30:10.465Z,103195.75
2023-02-14T07:32:39.616Z,103223.88
2023-02-14T07:35:09.223Z,103214.53
2023-02-14T07:37:37.629Z,103221.03
2023-02-14T07:40:14.377Z,103227.09
2023-02-14T07:42:43.742Z,103222.59
2023-02-14T07:45:21.641Z,103215.91
2023-02-14T07:47:52.201Z,103222.72
2023-02-14T07:50:21.577Z,103216.34
2023-02-14T07:52:51.155Z,103228.34
2023-02-14T07:55:20.314Z,103224.88
2023-02-14T07:57:49.646Z,103229.41
2023-02-14T08:00:21.249Z,103231.47
2023-02-14T08:02:49.687Z,103228.78
2023-02-14T08:05:18.403Z,103227.97
2023-02-14T08:07:47.296Z,103204.59
2023-02-14T08:10:16.459Z,103202.94
2023-02-14T08:13:03.536Z,103221.38
2023-02-14T08:15:52.609Z,103217.59
2023-02-14T08:18:23.605Z,103216.81
2023-02-14T08:20:52.598Z,103225.66
2023-02-14T08:23:22.096Z,103199.56
2023-02-14T08:25:52.513Z,103225.00
2023-02-14T08:28:24.405Z,103228.03
2023-02-14T08:30:54.591Z,103224.41
2023-02-14T08:33:23.855Z,103179.31
2023-02-14T08:35:53.182Z,103222.28
2023-02-14T08:38:22.378Z,103238.13
2023-02-14T08:40:50.674Z,103227.38
2023-02-14T08:43:19.135Z,103211.06
2023-02-14T08:45:48.664Z,103228.75
2023-02-14T08:48:18.366Z,103157.78
2023-02-14T08:50:46.783Z,103223.19
2023-02-14T08:53:15.250Z,103230.97
2023-02-14T08:55:43.544Z,103230.78
2023-02-14T08:58:12.049Z,103211.88
2023-02-14T09:00:40.713Z,103234.88
2023-02-14T09:03:10.622Z,103229.00
2023-02-14T09:05:40.456Z,103233.03
2023-02-14T09:08:09.022Z,103242.88
2023-02-14T09:10:38.215Z,103238.00
2023-02-14T09:13:07.314Z,103242.59
2023-02-14T09:15:35.669Z,103234.97
2023-02-14T09:18:03.990Z,103237.66
2023-02-14T09:20:32.593Z,103241.69
2023-02-14T09:23:02.217Z,103233.16
2023-02-14T09:25:30.564Z,103239.03
2023-02-14T09:27:59.046Z,103224.25
2023-02-14T09:30:27.570Z,103229.63
2023-02-14T09:32:56.119Z,103239.84
2023-02-14T09:35:24.536Z,103240.81
2023-02-14T09:38:10.416Z,103232.97
2023-02-14T09:40:40.226Z,103238.53
2023-02-14T09:43:16.835Z,103238.69
2023-02-14T09:45:52.448Z,103135.91
2023-02-14T09:48:29.701Z,103251.41
2023-02-14T09:51:02.162Z,103234.31
2023-02-14T09:53:34.148Z,103253.78
2023-02-14T09:56:13.589Z,103253.03
2023-02-14T09:58:49.046Z,103245.06
2023-02-14T10:01:25.671Z,103242.38
2023-02-14T10:04:24.256Z,103246.72
2023-02-14T10:07:00.740Z,103244.16
2023-02-14T10:09:50.736Z,103240.53
2023-02-14T10:12:26.348Z,103180.59
2023-02-14T10:14:56.962Z,103237.91
2023-02-14T10:17:32.186Z,103247.72
2023-02-14T10:20:05.880Z,103231.53
2023-02-14T10:22:43.427Z,103230.78
2023-02-14T10:25:22.379Z,103223.31
2023-02-14T10:27:54.485Z,103225.16
2023-02-14T10:30:24.934Z,103238.72
2023-02-14T10:33:06.903Z,103232.72
2023-02-14T10:35:43.720Z,103234.53
2023-02-14T10:38:34.747Z,103224.84
2023-02-14T10:41:24.820Z,103231.81
2023-02-14T10:44:06.104Z,103227.53
2023-02-14T10:46:43.837Z,103216.59
2023-02-14T10:49:33.158Z,103224.75
2023-02-14T10:52:09.850Z,103221.19
2023-02-14T10:54:41.672Z,103219.44
2023-02-14T10:57:17.515Z,103221.34
2023-02-14T10:59:54.254Z,103109.25
2023-02-14T11:02:27.140Z,103213.72
2023-02-14T11:04:56.198Z,103216.59
2023-02-14T11:07:24.786Z,103219.38
2023-02-14T11:09:53.148Z,103212.22
2023-02-14T11:12:40.102Z,103206.00
2023-02-14T11:15:27.553Z,103204.94
2023-02-14T11:18:17.298Z,103204.00
2023-02-14T11:21:00.305Z,103189.63
2023-02-14T11:23:28.778Z,103188.72
2023-02-14T11:25:57.709Z,103193.81
2023-02-14T11:28:26.199Z,103184.97
2023-02-14T11:30:56.995Z,103180.69
2023-02-14T11:33:36.331Z,103177.88
2023-02-14T11:36:07.352Z,103188.63
2023-02-14T11:38:38.415Z,103165.91
2023-02-14T11:41:10.159Z,103157.28
2023-02-14T11:43:40.434Z,103150.91
2023-02-14T11:46:17.185Z,103158.63
2023-02-14T11:49:01.464Z,103157.78
2023-02-14T11:51:33.232Z,103146.81
2023-02-14T11:54:05.303Z,103136.03
2023-02-14T11:56:54.310Z,103114.75
2023-02-14T11:59:36.364Z,103135.06
2023-02-14T12:02:24.354Z,103127.97
2023-02-14T12:04:57.761Z,103100.88
2023-02-14T12:07:31.046Z,103129.22
2023-02-14T12:10:27.236Z,103155.06
2023-02-14T12:13:02.512Z,103120.28
2023-02-14T12:15:40.742Z,103086.44
2023-02-14T12:18:42.241Z,103048.31
2023-02-14T12:21:26.175Z,103109.94
2023-02-14T12:24:04.589Z,103105.69
2023-02-14T12:26:37.417Z,103109.56
2023-02-14T12:29:16.615Z,103108.50
2023-02-14T12:31:46.373Z,103106.25
2023-02-14T12:34:18.257Z,103102.56
2023-02-14T12:37:32.836Z,103092.50
2023-02-14T12:40:22.461Z,103092.66
2023-02-14T12:43:09.262Z,103089.28
2023-02-14T12:46:12.816Z,103080.06
2023-02-14T12:49:02.999Z,103083.59
2023-02-14T12:51:40.569Z,103071.19
2023-02-14T12:54:32.308Z,103078.72
2023-02-14T12:57:13.679Z,103058.25
2023-02-14T12:59:51.933Z,103073.72
2023-02-14T13:03:01.840Z,103067.56
2023-02-14T13:05:45.190Z,103065.66
2023-02-14T13:08:37.685Z,103056.84
2023-02-14T13:11:16.902Z,103055.13
2023-02-14T13:13:55.978Z,103063.25
2023-02-14T13:16:33.622Z,103062.34
2023-02-14T13:19:12.728Z,103067.69
2023-02-14T13:21:42.452Z,103057.88
2023-02-14T13:24:19.388Z,103065.13
2023-02-14T13:26:53.781Z,103064.28
2023-02-14T13:29:25.564Z,103062.47
2023-02-14T13:31:58.805Z,103057.09
2023-02-14T13:34:31.567Z,103057.94
2023-02-14T13:37:01.984Z,103064.13
2023-02-14T13:39:38.491Z,103057.72
2023-02-14T13:42:08.477Z,103049.66
2023-02-14T13:44:48.091Z,103013.91
2023-02-14T13:47:21.145Z,103050.53
2023-02-14T13:49:53.127Z,103045.13
2023-02-14T13:52:43.293Z,103035.28
2023-02-14T13:55:20.574Z,103048.69
2023-02-14T13:58:03.253Z,103046.00
2023-02-14T14:00:43.644Z,103041.53
2023-02-14T14:03:16.511Z,103038.81
2023-02-14T14:06:07.404Z,103043.19
2023-02-14T14:08:56.127Z,103047.72
2023-02-14T14:12:00.788Z,103039.78
2023-02-14T14:14:39.713Z,103040.63
2023-02-14T14:17:29.005Z,103035.34
2023-02-14T14:19:58.097Z,103035.25
2023-02-14T14:22:27.025Z,103017.38
2023-02-14T14:25:01.657Z,103033.44
2023-02-14T14:27:36.027Z,103036.19
2023-02-14T14:30:07.837Z,103031.75
2023-02-14T14:32:38.957Z,103024.63
2023-02-14T14:35:19.043Z,102895.34
2023-02-14T14:37:50.032Z,103001.50
2023-02-14T14:40:26.546Z,103004.25
2023-02-14T14:43:01.113Z,102998.00
2023-02-14T14:45:31.952Z,103011.38
2023-02-14T14:48:04.352Z,103016.75
2023-02-14T14:50:34.641Z,103016.75
2023-02-14T14:53:06.774Z,103018.53
2023-02-14T14:55:38.796Z,103019.41
2023-02-14T14:58:36.779Z,103001.59
2023-02-14T15:01:06.801Z,103014.03
2023-02-14T15:03:35.559Z,103012.25
2023-02-14T15:06:09.692Z,103007.75
2023-02-14T15:08:38.199Z,103021.16
2023-02-14T15:11:11.397Z,103014.03
2023-02-14T15:13:53.838Z,103015.00
2023-02-14T15:16:26.678Z,103015.97
2023-02-14T15:18:58.597Z,102996.38
2023-02-14T15:21:27.778Z,103009.72
2023-02-14T15:23:56.603Z,103015.03
2023-02-14T15:26:29.762Z,103011.50
2023-02-14T15:29:03.214Z,103011.53
2023-02-14T15:31:35.595Z,103009.72
2023-02-14T15:34:05.210Z,103002.59
2023-02-14T15:36:36.013Z,102999.94
2023-02-14T15:39:07.940Z,103004.41
2023-02-14T15:41:37.179Z,102993.69
2023-02-14T15:44:06.989Z,102996.38
2023-02-14T15:46:38.916Z,102991.00
2023-02-14T15:49:12.014Z,102992.81
2023-02-14T15:51:41.790Z,102986.56
2023-02-14T15:54:22.488Z,102979.44
2023-02-14T15:56:53.839Z,102976.75
2023-02-14T15:59:29.049Z,102978.56
2023-02-14T16:02:01.123Z,102979.47
2023-02-14T16:04:31.788Z,102974.13
2023-02-14T16:07:17.433Z,102951.81
2023-02-14T16:09:45.815Z,102975.91
2023-02-14T16:12:33.778Z,102971.47
2023-02-14T16:15:12.052Z,102961.66
2023-02-14T16:17:41.973Z,102979.47
2023-02-14T16:20:43.266Z,102866.13
2023-02-14T16:23:22.136Z,102976.75
2023-02-14T16:25:50.952Z,102975.81
2023-02-14T16:28:19.489Z,102964.06
2023-02-14T16:30:56.082Z,102958.53
2023-02-14T16:33:27.744Z,102964.75
2023-02-14T16:35:59.813Z,102954.84
2023-02-14T16:38:28.187Z,102956.47
2023-02-14T16:40:56.568Z,102946.75
2023-02-14T16:43:25.178Z,102947.09
2023-02-14T16:45:55.386Z,102941.53
2023-02-14T16:48:23.712Z,102949.06
2023-02-14T16:50:52.549Z,102948.28
2023-02-14T16:53:27.956Z,102947.47
2023-02-14T16:55:58.486Z,102953.69
2023-02-14T16:58:34.277Z,102942.09
2023-02-14T17:01:04.779Z,102953.72
2023-02-14T17:03:33.098Z,102951.03
2023-02-14T17:06:02.548Z,102952.81
2023-02-14T17:08:32.412Z,102950.94
2023-02-14T17:11:02.097Z,102950.94
2023-02-14T17:13:34.785Z,102953.53
2023-02-14T17:16:06.332Z,102948.16
2023-02-14T17:18:36.564Z,102951.50
2023-02-14T17:21:06.351Z,102936.16
2023-02-14T17:23:34.639Z,102950.38
2023-02-14T17:26:03.265Z,102963.72
2023-02-14T17:28:31.623Z,102960.91
2023-02-14T17:31:00.926Z,102955.41
2023-02-14T17:33:32.789Z,102955.47
2023-02-14T17:36:06.673Z,102960.81
2023-02-14T17:38:35.950Z,102953.72
2023-02-14T17:41:13.828Z,102946.22
2023-02-14T17:43:42.448Z,102950.66
2023-02-14T17:46:11.441Z,102947.81
2023-02-14T17:48:41.490Z,102946.78
2023-02-14T17:51:11.080Z,102939.41
2023-02-14T17:53:41.540Z,102943.75
2023-02-14T17:56:13.136Z,102940.22
2023-02-14T17:58:41.992Z,102949.56
2023-02-14T18:01:13.160Z,102941.56
2023-02-14T18:03:43.292Z,102935.41
2023-02-14T18:06:12.842Z,102938.16
2023-02-14T18:08:46.235Z,102944.47
2023-02-14T18:11:15.018Z,102924.97
2023-02-14T18:13:44.400Z,102934.72
2023-02-14T18:16:15.969Z,102945.25
2023-02-14T18:18:46.018Z,102937.97
2023-02-14T18:21:16.641Z,102941.28
2023-02-14T18:23:44.946Z,102939.16
2023-02-14T18:26:15.883Z,102919.13
2023-02-14T18:28:44.822Z,102936.00
2023-02-14T18:31:15.924Z,102942.03
2023-02-14T18:33:48.766Z,102913.31
2023-02-14T18:36:19.572Z,102933.91
2023-02-14T18:38:49.850Z,102938.34
2023-02-14T18:41:20.676Z,102922.16
2023-02-14T18:43:50.014Z,102947.97
2023-02-14T18:46:21.489Z,102940.81
2023-02-14T18:48:52.038Z,102915.88
2023-02-14T18:51:23.523Z,102940.00
2023-02-14T18:53:54.442Z,102937.22
2023-02-14T18:56:25.503Z,102932.00
2023-02-14T18:59:00.716Z,102919.41
2023-02-14T19:01:32.174Z,102895.03
2023-02-14T19:04:02.572Z,102923.50
2023-02-14T19:06:32.596Z,102921.34
2023-02-14T19:09:01.768Z,102925.63
2023-02-14T19:11:32.756Z,102920.25
2023-02-14T19:14:03.437Z,102919.22
2023-02-14T19:16:36.907Z,102917.97
2023-02-14T19:19:06.948Z,102916.19
2023-02-14T19:21:36.739Z,102920.66
2023-02-14T19:24:08.021Z,102914.41
2023-02-14T19:26:40.490Z,102913.56
2023-02-14T19:29:11.629Z,102910.91
2023-02-14T19:31:43.331Z,102913.25
2023-02-14T19:34:19.693Z,102905.94
2023-02-14T19:36:49.562Z,102901.28
2023-02-14T19:39:19.099Z,102899.53
2023-02-14T19:41:48.951Z,102921.25
2023-02-14T19:44:19.156Z,102905.22
2023-02-14T19:46:48.685Z,102896.34
2023-02-14T19:49:20.617Z,102897.16
2023-02-14T19:51:52.141Z,102868.59
2023-02-14T19:54:21.960Z,102892.25
2023-02-14T19:56:50.548Z,102882.50
2023-02-14T19:59:22.555Z,102888.78
2023-02-14T20:01:53.162Z,102880.94
2023-02-14T20:04:25.426Z,102884.69
2023-02-14T20:06:54.630Z,102881.41
2023-02-14T20:09:23.982Z,102874.25
2023-02-14T20:11:54.564Z,102841.22
2023-02-14T20:14:25.636Z,102868.50
2023-02-14T20:16:56.001Z,102876.28
2023-02-14T20:19:29.465Z,102875.13
2023-02-14T20:21:57.969Z,102857.19
2023-02-14T20:24:28.483Z,102862.50
2023-02-14T20:26:57.618Z,102847.38
2023-02-14T20:29:26.861Z,102865.19
2023-02-14T20:31:59.800Z,102856.94
2023-02-14T20:34:30.047Z,102858.66
2023-02-14T20:36:59.278Z,102851.22
2023-02-14T20:39:31.806Z,102848.53
2023-02-14T20:42:00.540Z,102828.59
2023-02-14T20:44:29.250Z,102833.06
2023-02-14T20:46:58.419Z,102844.59
2023-02-14T20:49:30.941Z,102841.78
2023-02-14T20:51:59.873Z,102846.06
2023-02-14T20:54:29.814Z,102850.97
2023-02-14T20:56:59.071Z,102843.63
2023-02-14T20:59:28.770Z,102839.09
2023-02-14T21:01:59.224Z,102840.81
2023-02-14T21:04:29.814Z,102842.75
2023-02-14T21:07:00.241Z,102838.34
2023-02-14T21:09:28.690Z,102839.16
2023-02-14T21:11:58.300Z,102840.56
2023-02-14T21:14:26.808Z,102833.81
2023-02-14T21:16:55.097Z,102837.16
2023-02-14T21:19:23.498Z,102836.97
2023-02-14T21:21:53.476Z,102834.25
2023-02-14T21:24:21.922Z,102829.91
2023-02-14T21:26:50.211Z,102826.16
2023-02-14T21:29:18.750Z,102823.38
2023-02-14T21:31:47.086Z,102826.06
2023-02-14T21:34:17.146Z,102818.75
2023-02-14T21:36:46.032Z,102811.59
2023-02-14T21:39:16.058Z,102814.25
2023-02-14T21:41:44.376Z,102812.19
2023-02-14T21:44:32.770Z,102806.84
2023-02-14T21:47:00.164Z,102813.81
2023-02-14T21:49:46.244Z,102815.81
2023-02-14T21:52:14.548Z,102810.75
2023-02-14T21:54:44.218Z,102799.00
2023-02-14T21:57:12.628Z,102806.19
2023-02-14T21:59:41.206Z,102802.59
2023-02-14T22:02:09.529Z,102801.63
2023-02-14T22:04:38.368Z,102804.59
2023-02-14T22:07:06.730Z,102804.91
2023-02-14T22:09:35.224Z,102807.41
2023-02-14T22:12:05.598Z,102801.94
2023-02-14T22:14:33.921Z,102803.50
2023-02-14T22:17:02.188Z,102800.50
2023-02-14T22:19:30.665Z,102808.25
2023-02-14T22:21:58.948Z,102804.44
2023-02-14T22:24:27.444Z,102800.84
2023-02-14T22:26:55.952Z,102800.59
2023-02-14T22:29:25.693Z,102791.91
2023-02-14T22:31:54.160Z,102780.22
2023-02-14T22:34:22.482Z,102783.91
2023-02-14T22:36:51.290Z,102786.38
2023-02-14T22:39:20.044Z,102792.78
2023-02-14T22:41:48.400Z,102799.00
2023-02-14T22:44:16.723Z,102804.91
2023-02-14T22:46:46.404Z,102791.78
2023-02-14T22:49:15.053Z,102788.66
2023-02-14T22:51:44.181Z,102789.34
2023-02-14T22:54:15.411Z,102789.09
2023-02-14T22:56:45.799Z,102765.88
2023-02-14T22:59:19.724Z,102745.09
2023-02-14T23:01:51.060Z,102778.69
2023-02-14T23:04:22.682Z,102745.38
2023-02-14T23:06:52.818Z,102764.09
2023-02-14T23:09:21.827Z,102749.88
2023-02-14T23:11:50.935Z,102750.97
2023-02-14T23:14:37.710Z,102764.31
2023-02-14T23:17:21.854Z,102763.81
2023-02-14T23:20:07.479Z,102762.22
2023-02-14T23:22:38.390Z,102768.13
2023-02-14T23:25:09.455Z,102766.94
2023-02-14T23:27:40.887Z,102769.19
2023-02-14T23:30:14.226Z,102767.59
2023-02-14T23:32:44.167Z,102766.97
2023-02-14T23:35:12.477Z,102754.00
2023-02-14T23:37:41.684Z,102755.59
2023-02-14T23:40:11.464Z,102724.81
2023-02-14T23:42:39.851Z,102737.78
2023-02-14T23:45:32.403Z,102742.75
2023-02-14T23:48:05.228Z,102746.78
2023-02-14T23:50:33.528Z,102739.78
2023-02-14T23:53:01.756Z,102738.34
2023-02-14T23:55:30.072Z,102732.91
2023-02-14T23:57:58.385Z,102729.94
